sensor_id;sensor_type;location;lat;lon;timestamp;temperature;humidity
15241;DHT22;7723;52.170;9.978;2024-03-02T00:00:50;8.70;1.00
15241;DHT22;7723;52.170;9.978;2024-03-02T00:03:17;8.70;1.00
15241;DHT22;7723;52.170;9.978;2024-03-02T00:05:49;8.70;1.00
15241;DHT22;7723;52.170;9.978;2024-03-02T00:08:22;8.70;1.00
15241;DHT22;7723;52.170;9.978;2024-03-02T00:10:49;8.70;1.00
15241;DHT22;7723;52.170;9.978;2024-03-02T00:13:21;8.60;1.00
15241;DHT22;7723;52.170;9.978;2024-03-02T00:15:52;8.60;1.00
15241;DHT22;7723;52.170;9.978;2024-03-02T00:18:20;8.60;1.00
15241;DHT22;7723;52.170;9.978;2024-03-02T00:20:48;8.50;1.00
15241;DHT22;7723;52.170;9.978;2024-03-02T00:23:15;8.50;1.00
15241;DHT22;7723;52.170;9.978;2024-03-02T00:25:45;8.50;1.00
15241;DHT22;7723;52.170;9.978;2024-03-02T00:28:16;8.40;1.00
15241;DHT22;7723;52.170;9.978;2024-03-02T00:30:56;8.40;1.00
15241;DHT22;7723;52.170;9.978;2024-03-02T00:33:25;8.40;1.00
15241;DHT22;7723;52.170;9.978;2024-03-02T00:35:53;8.40;1.00
15241;DHT22;7723;52.170;9.978;2024-03-02T00:38:20;8.30;25.30
15241;DHT22;7723;52.170;9.978;2024-03-02T00:40:48;8.30;36.00
15241;DHT22;7723;52.170;9.978;2024-03-02T00:43:42;8.30;53.50
15241;DHT22;7723;52.170;9.978;2024-03-02T00:46:16;8.30;26.40
15241;DHT22;7723;52.170;9.978;2024-03-02T00:48:55;8.20;64.60
15241;DHT22;7723;52.170;9.978;2024-03-02T00:51:23;8.20;98.10
15241;DHT22;7723;52.170;9.978;2024-03-02T00:53:51;8.20;99.90
15241;DHT22;7723;52.170;9.978;2024-03-02T00:56:20;8.20;90.70
15241;DHT22;7723;52.170;9.978;2024-03-02T00:58:49;8.20;99.90
15241;DHT22;7723;52.170;9.978;2024-03-02T01:01:18;8.20;99.90
15241;DHT22;7723;52.170;9.978;2024-03-02T01:03:45;8.20;99.90
15241;DHT22;7723;52.170;9.978;2024-03-02T01:06:12;8.30;99.90
15241;DHT22;7723;52.170;9.978;2024-03-02T01:08:39;8.40;35.40
15241;DHT22;7723;52.170;9.978;2024-03-02T01:11:07;8.40;12.50
15241;DHT22;7723;52.170;9.978;2024-03-02T01:13:34;8.30;38.20
15241;DHT22;7723;52.170;9.978;2024-03-02T01:16:02;8.30;43.10
15241;DHT22;7723;52.170;9.978;2024-03-02T01:18:31;8.40;56.70
15241;DHT22;7723;52.170;9.978;2024-03-02T01:20:58;8.40;14.50
15241;DHT22;7723;52.170;9.978;2024-03-02T01:23:25;8.40;10.40
15241;DHT22;7723;52.170;9.978;2024-03-02T01:25:52;8.40;11.80
15241;DHT22;7723;52.170;9.978;2024-03-02T01:28:20;8.40;22.60
15241;DHT22;7723;52.170;9.978;2024-03-02T01:30:48;8.50;1.00
15241;DHT22;7723;52.170;9.978;2024-03-02T01:33:16;8.50;1.00
15241;DHT22;7723;52.170;9.978;2024-03-02T01:35:44;8.50;1.00
15241;DHT22;7723;52.170;9.978;2024-03-02T01:38:11;8.50;1.00
15241;DHT22;7723;52.170;9.978;2024-03-02T01:40:39;8.40;1.00
15241;DHT22;7723;52.170;9.978;2024-03-02T01:43:07;8.50;1.00
15241;DHT22;7723;52.170;9.978;2024-03-02T01:45:34;8.50;1.00
15241;DHT22;7723;52.170;9.978;2024-03-02T01:48:03;8.50;1.00
15241;DHT22;7723;52.170;9.978;2024-03-02T01:50:32;8.50;1.00
15241;DHT22;7723;52.170;9.978;2024-03-02T01:53:01;8.50;1.00
15241;DHT22;7723;52.170;9.978;2024-03-02T01:55:28;8.40;1.00
15241;DHT22;7723;52.170;9.978;2024-03-02T01:57:56;8.40;1.00
15241;DHT22;7723;52.170;9.978;2024-03-02T02:00:23;8.30;1.00
15241;DHT22;7723;52.170;9.978;2024-03-02T02:02:51;8.30;17.50
15241;DHT22;7723;52.170;9.978;2024-03-02T02:05:19;8.30;1.00
15241;DHT22;7723;52.170;9.978;2024-03-02T02:07:46;8.30;1.00
15241;DHT22;7723;52.170;9.978;2024-03-02T02:10:14;8.30;5.00
15241;DHT22;7723;52.170;9.978;2024-03-02T02:12:42;8.30;1.00
15241;DHT22;7723;52.170;9.978;2024-03-02T02:15:25;8.40;1.00
15241;DHT22;7723;52.170;9.978;2024-03-02T02:17:53;8.30;1.00
15241;DHT22;7723;52.170;9.978;2024-03-02T02:20:20;8.30;1.00
15241;DHT22;7723;52.170;9.978;2024-03-02T02:22:59;8.30;1.00
15241;DHT22;7723;52.170;9.978;2024-03-02T02:25:27;8.30;1.00
15241;DHT22;7723;52.170;9.978;2024-03-02T02:27:54;8.30;1.00
15241;DHT22;7723;52.170;9.978;2024-03-02T02:30:22;8.20;1.00
15241;DHT22;7723;52.170;9.978;2024-03-02T02:32:49;8.30;1.00
15241;DHT22;7723;52.170;9.978;2024-03-02T02:35:16;8.20;1.00
15241;DHT22;7723;52.170;9.978;2024-03-02T02:37:44;8.20;5.20
15241;DHT22;7723;52.170;9.978;2024-03-02T02:40:14;8.20;13.90
15241;DHT22;7723;52.170;9.978;2024-03-02T02:42:41;8.20;8.90
15241;DHT22;7723;52.170;9.978;2024-03-02T02:45:08;8.30;9.80
15241;DHT22;7723;52.170;9.978;2024-03-02T02:47:36;8.20;28.50
15241;DHT22;7723;52.170;9.978;2024-03-02T02:50:04;8.20;51.20
15241;DHT22;7723;52.170;9.978;2024-03-02T02:52:32;8.20;50.20
15241;DHT22;7723;52.170;9.978;2024-03-02T02:55:05;8.20;55.10
15241;DHT22;7723;52.170;9.978;2024-03-02T02:57:35;8.10;67.80
15241;DHT22;7723;52.170;9.978;2024-03-02T03:00:05;8.10;93.00
15241;DHT22;7723;52.170;9.978;2024-03-02T03:02:36;8.10;94.60
15241;DHT22;7723;52.170;9.978;2024-03-02T03:05:04;8.10;74.80
15241;DHT22;7723;52.170;9.978;2024-03-02T03:07:31;8.10;85.90
15241;DHT22;7723;52.170;9.978;2024-03-02T03:09:59;8.10;84.70
15241;DHT22;7723;52.170;9.978;2024-03-02T03:12:26;8.10;89.70
15241;DHT22;7723;52.170;9.978;2024-03-02T03:14:56;8.10;99.90
15241;DHT22;7723;52.170;9.978;2024-03-02T03:17:23;8.10;99.90
15241;DHT22;7723;52.170;9.978;2024-03-02T03:19:50;8.10;99.90
15241;DHT22;7723;52.170;9.978;2024-03-02T03:22:17;8.10;99.90
15241;DHT22;7723;52.170;9.978;2024-03-02T03:24:44;8.10;99.90
15241;DHT22;7723;52.170;9.978;2024-03-02T03:27:11;8.10;99.90
15241;DHT22;7723;52.170;9.978;2024-03-02T03:29:39;8.10;99.90
15241;DHT22;7723;52.170;9.978;2024-03-02T03:32:08;8.00;99.90
15241;DHT22;7723;52.170;9.978;2024-03-02T03:34:35;8.00;99.90
15241;DHT22;7723;52.170;9.978;2024-03-02T03:37:03;8.00;99.90
15241;DHT22;7723;52.170;9.978;2024-03-02T03:39:30;8.00;99.90
15241;DHT22;7723;52.170;9.978;2024-03-02T03:41:57;8.00;99.90
15241;DHT22;7723;52.170;9.978;2024-03-02T03:44:24;8.00;99.90
15241;DHT22;7723;52.170;9.978;2024-03-02T03:46:51;7.90;99.90
15241;DHT22;7723;52.170;9.978;2024-03-02T03:49:20;7.90;99.90
15241;DHT22;7723;52.170;9.978;2024-03-02T03:51:47;8.00;99.90
15241;DHT22;7723;52.170;9.978;2024-03-02T03:54:15;7.90;99.90
15241;DHT22;7723;52.170;9.978;2024-03-02T03:56:42;7.90;99.90
15241;DHT22;7723;52.170;9.978;2024-03-02T03:59:09;7.90;99.90
15241;DHT22;7723;52.170;9.978;2024-03-02T04:01:37;7.90;99.90
15241;DHT22;7723;52.170;9.978;2024-03-02T04:04:04;7.90;99.90
15241;DHT22;7723;52.170;9.978;2024-03-02T04:06:32;7.90;99.90
15241;DHT22;7723;52.170;9.978;2024-03-02T04:08:59;7.90;99.90
15241;DHT22;7723;52.170;9.978;2024-03-02T04:11:26;7.90;99.90
15241;DHT22;7723;52.170;9.978;2024-03-02T04:13:54;7.80;99.90
15241;DHT22;7723;52.170;9.978;2024-03-02T04:16:21;7.80;99.90
15241;DHT22;7723;52.170;9.978;2024-03-02T04:18:48;7.70;99.90
15241;DHT22;7723;52.170;9.978;2024-03-02T04:21:15;7.60;99.90
15241;DHT22;7723;52.170;9.978;2024-03-02T04:23:44;7.70;99.90
15241;DHT22;7723;52.170;9.978;2024-03-02T04:26:11;7.70;99.90
15241;DHT22;7723;52.170;9.978;2024-03-02T04:28:38;7.60;99.90
15241;DHT22;7723;52.170;9.978;2024-03-02T04:31:05;7.60;99.90
15241;DHT22;7723;52.170;9.978;2024-03-02T04:33:32;7.60;99.90
15241;DHT22;7723;52.170;9.978;2024-03-02T04:35:59;7.50;99.90
15241;DHT22;7723;52.170;9.978;2024-03-02T04:38:26;7.50;99.90
15241;DHT22;7723;52.170;9.978;2024-03-02T04:40:56;7.50;99.90
15241;DHT22;7723;52.170;9.978;2024-03-02T04:43:23;7.60;99.90
15241;DHT22;7723;52.170;9.978;2024-03-02T04:45:50;7.50;99.90
15241;DHT22;7723;52.170;9.978;2024-03-02T04:48:17;7.50;99.90
15241;DHT22;7723;52.170;9.978;2024-03-02T04:50:45;7.50;99.90
15241;DHT22;7723;52.170;9.978;2024-03-02T04:53:12;7.50;99.90
15241;DHT22;7723;52.170;9.978;2024-03-02T04:55:39;7.60;99.90
15241;DHT22;7723;52.170;9.978;2024-03-02T04:58:25;7.70;99.90
15241;DHT22;7723;52.170;9.978;2024-03-02T05:00:52;7.60;99.90
15241;DHT22;7723;52.170;9.978;2024-03-02T05:03:19;7.60;99.90
15241;DHT22;7723;52.170;9.978;2024-03-02T05:05:46;7.60;99.90
15241;DHT22;7723;52.170;9.978;2024-03-02T05:08:13;7.50;99.90
15241;DHT22;7723;52.170;9.978;2024-03-02T05:10:41;7.50;99.90
15241;DHT22;7723;52.170;9.978;2024-03-02T05:13:09;7.50;99.90
15241;DHT22;7723;52.170;9.978;2024-03-02T05:15:37;7.40;99.90
15241;DHT22;7723;52.170;9.978;2024-03-02T05:18:05;7.50;99.90
15241;DHT22;7723;52.170;9.978;2024-03-02T05:20:32;7.50;99.90
15241;DHT22;7723;52.170;9.978;2024-03-02T05:22:59;7.40;99.90
15241;DHT22;7723;52.170;9.978;2024-03-02T05:25:26;7.40;99.90
15241;DHT22;7723;52.170;9.978;2024-03-02T05:27:53;7.40;99.90
15241;DHT22;7723;52.170;9.978;2024-03-02T05:30:21;7.40;99.90
15241;DHT22;7723;52.170;9.978;2024-03-02T05:32:52;7.30;99.90
15241;DHT22;7723;52.170;9.978;2024-03-02T05:35:19;7.20;99.90
15241;DHT22;7723;52.170;9.978;2024-03-02T05:37:46;7.20;99.90
15241;DHT22;7723;52.170;9.978;2024-03-02T05:40:13;7.10;99.90
15241;DHT22;7723;52.170;9.978;2024-03-02T05:42:40;7.10;99.90
15241;DHT22;7723;52.170;9.978;2024-03-02T05:45:08;7.10;99.90
15241;DHT22;7723;52.170;9.978;2024-03-02T05:47:35;7.00;99.90
15241;DHT22;7723;52.170;9.978;2024-03-02T05:50:04;6.90;99.90
15241;DHT22;7723;52.170;9.978;2024-03-02T05:52:32;6.70;99.90
15241;DHT22;7723;52.170;9.978;2024-03-02T05:54:59;6.60;99.90
15241;DHT22;7723;52.170;9.978;2024-03-02T05:57:26;6.70;99.90
15241;DHT22;7723;52.170;9.978;2024-03-02T06:00:11;7.00;99.90
15241;DHT22;7723;52.170;9.978;2024-03-02T06:02:39;7.00;99.90
15241;DHT22;7723;52.170;9.978;2024-03-02T06:05:09;6.90;99.90
15241;DHT22;7723;52.170;9.978;2024-03-02T06:07:36;6.80;99.90
15241;DHT22;7723;52.170;9.978;2024-03-02T06:10:03;6.90;99.90
15241;DHT22;7723;52.170;9.978;2024-03-02T06:12:33;7.20;99.90
15241;DHT22;7723;52.170;9.978;2024-03-02T06:15:00;7.30;99.90
15241;DHT22;7723;52.170;9.978;2024-03-02T06:17:27;7.30;99.90
15241;DHT22;7723;52.170;9.978;2024-03-02T06:19:54;7.40;99.90
15241;DHT22;7723;52.170;9.978;2024-03-02T06:22:22;7.50;99.90
15241;DHT22;7723;52.170;9.978;2024-03-02T06:24:53;7.50;99.90
15241;DHT22;7723;52.170;9.978;2024-03-02T06:27:20;7.50;99.90
15241;DHT22;7723;52.170;9.978;2024-03-02T06:29:47;7.50;99.90
15241;DHT22;7723;52.170;9.978;2024-03-02T06:32:14;7.60;99.90
15241;DHT22;7723;52.170;9.978;2024-03-02T06:34:41;7.60;99.90
15241;DHT22;7723;52.170;9.978;2024-03-02T06:37:08;7.70;99.90
15241;DHT22;7723;52.170;9.978;2024-03-02T06:39:37;7.80;99.90
15241;DHT22;7723;52.170;9.978;2024-03-02T06:42:04;7.80;99.90
15241;DHT22;7723;52.170;9.978;2024-03-02T06:44:31;7.80;99.90
15241;DHT22;7723;52.170;9.978;2024-03-02T06:46:58;7.90;99.90
15241;DHT22;7723;52.170;9.978;2024-03-02T06:49:25;7.90;99.90
15241;DHT22;7723;52.170;9.978;2024-03-02T06:51:52;8.00;99.90
15241;DHT22;7723;52.170;9.978;2024-03-02T06:54:19;8.10;99.90
15241;DHT22;7723;52.170;9.978;2024-03-02T06:56:48;8.20;99.90
15241;DHT22;7723;52.170;9.978;2024-03-02T06:59:15;8.40;99.90
15241;DHT22;7723;52.170;9.978;2024-03-02T07:01:42;8.50;99.90
15241;DHT22;7723;52.170;9.978;2024-03-02T07:04:09;8.70;99.90
15241;DHT22;7723;52.170;9.978;2024-03-02T07:06:36;8.80;99.90
15241;DHT22;7723;52.170;9.978;2024-03-02T07:09:03;9.00;99.90
15241;DHT22;7723;52.170;9.978;2024-03-02T07:11:31;9.00;99.90
15241;DHT22;7723;52.170;9.978;2024-03-02T07:13:59;9.10;89.90
15241;DHT22;7723;52.170;9.978;2024-03-02T07:16:27;9.20;82.40
15241;DHT22;7723;52.170;9.978;2024-03-02T07:18:58;9.20;1.00
15241;DHT22;7723;52.170;9.978;2024-03-02T07:21:27;9.20;1.00
15241;DHT22;7723;52.170;9.978;2024-03-02T07:23:54;9.10;1.00
15241;DHT22;7723;52.170;9.978;2024-03-02T07:26:21;9.10;1.00
15241;DHT22;7723;52.170;9.978;2024-03-02T07:28:49;9.00;1.00
15241;DHT22;7723;52.170;9.978;2024-03-02T07:31:17;9.10;1.00
15241;DHT22;7723;52.170;9.978;2024-03-02T07:33:45;9.10;1.00
15241;DHT22;7723;52.170;9.978;2024-03-02T07:36:13;9.10;1.00
15241;DHT22;7723;52.170;9.978;2024-03-02T07:38:40;9.20;1.00
15241;DHT22;7723;52.170;9.978;2024-03-02T07:41:08;9.30;1.00
15241;DHT22;7723;52.170;9.978;2024-03-02T07:43:36;9.40;1.00
15241;DHT22;7723;52.170;9.978;2024-03-02T07:46:04;9.60;1.00
15241;DHT22;7723;52.170;9.978;2024-03-02T07:48:33;10.00;1.00
15241;DHT22;7723;52.170;9.978;2024-03-02T07:51:00;10.30;99.90
15241;DHT22;7723;52.170;9.978;2024-03-02T07:53:28;10.60;99.90
15241;DHT22;7723;52.170;9.978;2024-03-02T07:55:55;11.00;99.90
15241;DHT22;7723;52.170;9.978;2024-03-02T07:58:27;11.30;99.90
15241;DHT22;7723;52.170;9.978;2024-03-02T08:00:54;11.60;99.90
15241;DHT22;7723;52.170;9.978;2024-03-02T08:03:22;11.80;99.90
15241;DHT22;7723;52.170;9.978;2024-03-02T08:05:50;12.10;99.90
15241;DHT22;7723;52.170;9.978;2024-03-02T08:08:18;13.20;99.90
15241;DHT22;7723;52.170;9.978;2024-03-02T08:10:45;12.40;1.00
15241;DHT22;7723;52.170;9.978;2024-03-02T08:13:12;12.60;99.90
15241;DHT22;7723;52.170;9.978;2024-03-02T08:15:39;12.60;1.00
15241;DHT22;7723;52.170;9.978;2024-03-02T08:18:07;12.70;99.90
15241;DHT22;7723;52.170;9.978;2024-03-02T08:20:34;12.70;99.90
15241;DHT22;7723;52.170;9.978;2024-03-02T08:23:03;12.50;99.90
15241;DHT22;7723;52.170;9.978;2024-03-02T08:25:31;12.20;99.90
15241;DHT22;7723;52.170;9.978;2024-03-02T08:27:58;12.20;1.00
15241;DHT22;7723;52.170;9.978;2024-03-02T08:30:25;12.20;1.00
15241;DHT22;7723;52.170;9.978;2024-03-02T08:32:52;12.10;1.00
15241;DHT22;7723;52.170;9.978;2024-03-02T08:35:19;12.20;99.90
15241;DHT22;7723;52.170;9.978;2024-03-02T08:37:48;12.20;99.90
15241;DHT22;7723;52.170;9.978;2024-03-02T08:40:16;11.90;99.90
15241;DHT22;7723;52.170;9.978;2024-03-02T08:42:43;12.10;1.00
15241;DHT22;7723;52.170;9.978;2024-03-02T08:45:11;12.50;99.90
15241;DHT22;7723;52.170;9.978;2024-03-02T08:47:38;12.90;99.90
15241;DHT22;7723;52.170;9.978;2024-03-02T08:50:06;13.20;99.90
15241;DHT22;7723;52.170;9.978;2024-03-02T08:52:34;13.60;1.00
15241;DHT22;7723;52.170;9.978;2024-03-02T08:55:01;13.70;99.90
15241;DHT22;7723;52.170;9.978;2024-03-02T08:57:30;13.50;83.80
15241;DHT22;7723;52.170;9.978;2024-03-02T08:59:58;13.60;1.00
15241;DHT22;7723;52.170;9.978;2024-03-02T09:02:25;13.70;1.00
15241;DHT22;7723;52.170;9.978;2024-03-02T09:04:53;13.80;1.00
15241;DHT22;7723;52.170;9.978;2024-03-02T09:07:20;13.90;1.00
15241;DHT22;7723;52.170;9.978;2024-03-02T09:09:47;13.80;99.90
15241;DHT22;7723;52.170;9.978;2024-03-02T09:12:14;13.50;1.00
15241;DHT22;7723;52.170;9.978;2024-03-02T09:14:43;13.90;1.00
15241;DHT22;7723;52.170;9.978;2024-03-02T09:17:10;14.10;1.00
15241;DHT22;7723;52.170;9.978;2024-03-02T09:19:38;14.10;99.90
15241;DHT22;7723;52.170;9.978;2024-03-02T09:22:05;14.40;99.90
15241;DHT22;7723;52.170;9.978;2024-03-02T09:24:32;14.20;1.00
15241;DHT22;7723;52.170;9.978;2024-03-02T09:27:00;14.10;5.90
15241;DHT22;7723;52.170;9.978;2024-03-02T09:29:27;14.30;1.00
15241;DHT22;7723;52.170;9.978;2024-03-02T09:31:56;14.10;1.00
15241;DHT22;7723;52.170;9.978;2024-03-02T09:34:23;14.20;1.00
15241;DHT22;7723;52.170;9.978;2024-03-02T09:36:51;14.10;1.00
15241;DHT22;7723;52.170;9.978;2024-03-02T09:39:18;14.10;1.00
15241;DHT22;7723;52.170;9.978;2024-03-02T09:41:45;14.20;1.00
15241;DHT22;7723;52.170;9.978;2024-03-02T09:44:14;14.20;1.00
15241;DHT22;7723;52.170;9.978;2024-03-02T09:46:41;13.90;1.00
15241;DHT22;7723;52.170;9.978;2024-03-02T09:49:11;14.30;1.00
15241;DHT22;7723;52.170;9.978;2024-03-02T09:51:38;14.30;1.00
15241;DHT22;7723;52.170;9.978;2024-03-02T09:54:07;13.70;1.00
15241;DHT22;7723;52.170;9.978;2024-03-02T09:56:34;13.60;1.00
15241;DHT22;7723;52.170;9.978;2024-03-02T09:59:02;13.50;60.60
15241;DHT22;7723;52.170;9.978;2024-03-02T10:01:29;13.70;1.00
15241;DHT22;7723;52.170;9.978;2024-03-02T10:03:58;14.00;37.20
15241;DHT22;7723;52.170;9.978;2024-03-02T10:06:28;13.70;1.00
15241;DHT22;7723;52.170;9.978;2024-03-02T10:08:56;13.40;73.70
15241;DHT22;7723;52.170;9.978;2024-03-02T10:11:27;13.40;99.90
15241;DHT22;7723;52.170;9.978;2024-03-02T10:14:07;13.00;99.90
15241;DHT22;7723;52.170;9.978;2024-03-02T10:16:36;12.60;1.00
15241;DHT22;7723;52.170;9.978;2024-03-02T10:19:16;12.60;1.00
15241;DHT22;7723;52.170;9.978;2024-03-02T10:21:46;12.80;99.90
15241;DHT22;7723;52.170;9.978;2024-03-02T10:24:13;12.40;1.00
15241;DHT22;7723;52.170;9.978;2024-03-02T10:26:40;12.10;1.00
15241;DHT22;7723;52.170;9.978;2024-03-02T10:29:09;12.20;1.00
15241;DHT22;7723;52.170;9.978;2024-03-02T10:31:37;12.00;1.00
15241;DHT22;7723;52.170;9.978;2024-03-02T10:34:05;12.20;1.00
15241;DHT22;7723;52.170;9.978;2024-03-02T10:36:32;12.30;99.90
15241;DHT22;7723;52.170;9.978;2024-03-02T10:39:03;12.50;99.90
15241;DHT22;7723;52.170;9.978;2024-03-02T10:41:33;12.40;38.40
15241;DHT22;7723;52.170;9.978;2024-03-02T10:44:02;12.50;1.00
15241;DHT22;7723;52.170;9.978;2024-03-02T10:46:30;12.80;1.00
15241;DHT22;7723;52.170;9.978;2024-03-02T10:48:58;12.80;1.00
15241;DHT22;7723;52.170;9.978;2024-03-02T10:51:25;12.70;1.00
15241;DHT22;7723;52.170;9.978;2024-03-02T10:53:53;12.70;1.00
15241;DHT22;7723;52.170;9.978;2024-03-02T10:56:28;12.50;1.00
15241;DHT22;7723;52.170;9.978;2024-03-02T10:59:01;12.30;3.20
15241;DHT22;7723;52.170;9.978;2024-03-02T11:01:29;12.40;50.30
15241;DHT22;7723;52.170;9.978;2024-03-02T11:03:59;12.40;99.90
15241;DHT22;7723;52.170;9.978;2024-03-02T11:06:28;12.40;99.90
15241;DHT22;7723;52.170;9.978;2024-03-02T11:09:00;12.40;99.90
15241;DHT22;7723;52.170;9.978;2024-03-02T11:11:36;12.50;99.90
15241;DHT22;7723;52.170;9.978;2024-03-02T11:14:06;12.20;80.80
15241;DHT22;7723;52.170;9.978;2024-03-02T11:16:35;12.30;99.90
15241;DHT22;7723;52.170;9.978;2024-03-02T11:19:06;12.50;99.90
15241;DHT22;7723;52.170;9.978;2024-03-02T11:21:34;12.60;99.90
15241;DHT22;7723;52.170;9.978;2024-03-02T11:24:28;12.70;1.00
15241;DHT22;7723;52.170;9.978;2024-03-02T11:27:00;12.70;1.00
15241;DHT22;7723;52.170;9.978;2024-03-02T11:29:46;12.70;1.00
15241;DHT22;7723;52.170;9.978;2024-03-02T11:32:16;12.40;1.00
15241;DHT22;7723;52.170;9.978;2024-03-02T11:34:45;12.60;4.80
15241;DHT22;7723;52.170;9.978;2024-03-02T11:37:14;12.40;1.00
15241;DHT22;7723;52.170;9.978;2024-03-02T11:39:42;12.40;99.90
15241;DHT22;7723;52.170;9.978;2024-03-02T11:42:11;12.60;1.00
15241;DHT22;7723;52.170;9.978;2024-03-02T11:44:42;12.70;1.00
15241;DHT22;7723;52.170;9.978;2024-03-02T11:47:11;12.80;1.00
15241;DHT22;7723;52.170;9.978;2024-03-02T11:49:41;12.60;99.90
15241;DHT22;7723;52.170;9.978;2024-03-02T11:52:09;12.80;1.00
15241;DHT22;7723;52.170;9.978;2024-03-02T11:54:37;12.60;1.00
15241;DHT22;7723;52.170;9.978;2024-03-02T11:57:07;12.70;1.00
15241;DHT22;7723;52.170;9.978;2024-03-02T11:59:35;12.60;1.00
15241;DHT22;7723;52.170;9.978;2024-03-02T12:02:03;12.40;1.00
15241;DHT22;7723;52.170;9.978;2024-03-02T12:04:31;12.30;1.00
15241;DHT22;7723;52.170;9.978;2024-03-02T12:07:00;12.20;1.00
15241;DHT22;7723;52.170;9.978;2024-03-02T12:09:27;12.20;1.00
15241;DHT22;7723;52.170;9.978;2024-03-02T12:12:04;12.20;14.40
15241;DHT22;7723;52.170;9.978;2024-03-02T12:14:32;12.40;1.00
15241;DHT22;7723;52.170;9.978;2024-03-02T12:17:01;12.50;1.00
15241;DHT22;7723;52.170;9.978;2024-03-02T12:19:31;12.60;1.00
15241;DHT22;7723;52.170;9.978;2024-03-02T12:21:59;12.70;1.00
15241;DHT22;7723;52.170;9.978;2024-03-02T12:24:28;12.70;99.90
15241;DHT22;7723;52.170;9.978;2024-03-02T12:26:55;12.70;99.90
15241;DHT22;7723;52.170;9.978;2024-03-02T12:29:23;12.90;99.90
15241;DHT22;7723;52.170;9.978;2024-03-02T12:31:51;12.80;99.90
15241;DHT22;7723;52.170;9.978;2024-03-02T12:34:21;12.90;99.90
15241;DHT22;7723;52.170;9.978;2024-03-02T12:36:49;13.10;44.60
15241;DHT22;7723;52.170;9.978;2024-03-02T12:39:19;13.10;1.00
15241;DHT22;7723;52.170;9.978;2024-03-02T12:41:46;13.30;1.00
15241;DHT22;7723;52.170;9.978;2024-03-02T12:44:16;13.40;1.00
15241;DHT22;7723;52.170;9.978;2024-03-02T12:46:43;13.20;1.00
15241;DHT22;7723;52.170;9.978;2024-03-02T12:49:11;13.20;1.00
15241;DHT22;7723;52.170;9.978;2024-03-02T12:51:41;13.30;1.00
15241;DHT22;7723;52.170;9.978;2024-03-02T12:54:08;13.50;1.00
15241;DHT22;7723;52.170;9.978;2024-03-02T12:56:36;13.60;1.00
15241;DHT22;7723;52.170;9.978;2024-03-02T12:59:04;13.70;1.00
15241;DHT22;7723;52.170;9.978;2024-03-02T13:01:31;13.70;99.90
15241;DHT22;7723;52.170;9.978;2024-03-02T13:03:58;13.60;1.00
15241;DHT22;7723;52.170;9.978;2024-03-02T13:06:26;13.60;99.90
15241;DHT22;7723;52.170;9.978;2024-03-02T13:08:56;13.70;99.90
15241;DHT22;7723;52.170;9.978;2024-03-02T13:11:23;13.70;99.90
15241;DHT22;7723;52.170;9.978;2024-03-02T13:13:51;13.90;99.90
15241;DHT22;7723;52.170;9.978;2024-03-02T13:16:18;14.00;96.70
15241;DHT22;7723;52.170;9.978;2024-03-02T13:18:46;13.90;62.30
15241;DHT22;7723;52.170;9.978;2024-03-02T13:21:14;13.80;1.00
15241;DHT22;7723;52.170;9.978;2024-03-02T13:23:41;13.80;99.90
15241;DHT22;7723;52.170;9.978;2024-03-02T13:26:09;13.80;52.10
15241;DHT22;7723;52.170;9.978;2024-03-02T13:28:38;13.90;52.40
15241;DHT22;7723;52.170;9.978;2024-03-02T13:31:06;13.90;1.00
15241;DHT22;7723;52.170;9.978;2024-03-02T13:33:33;13.80;49.50
15241;DHT22;7723;52.170;9.978;2024-03-02T13:36:00;13.80;1.00
15241;DHT22;7723;52.170;9.978;2024-03-02T13:38:28;13.80;1.00
15241;DHT22;7723;52.170;9.978;2024-03-02T13:40:55;13.70;1.00
15241;DHT22;7723;52.170;9.978;2024-03-02T13:43:24;13.80;1.00
15241;DHT22;7723;52.170;9.978;2024-03-02T13:45:51;13.70;1.00
15241;DHT22;7723;52.170;9.978;2024-03-02T13:48:19;13.70;1.00
15241;DHT22;7723;52.170;9.978;2024-03-02T13:50:46;13.80;1.00
15241;DHT22;7723;52.170;9.978;2024-03-02T13:53:13;13.90;1.00
15241;DHT22;7723;52.170;9.978;2024-03-02T13:55:40;13.90;1.00
15241;DHT22;7723;52.170;9.978;2024-03-02T13:58:09;13.90;10.90
15241;DHT22;7723;52.170;9.978;2024-03-02T14:00:38;13.80;1.00
15241;DHT22;7723;52.170;9.978;2024-03-02T14:03:06;13.90;99.10
15241;DHT22;7723;52.170;9.978;2024-03-02T14:05:33;13.80;99.20
15241;DHT22;7723;52.170;9.978;2024-03-02T14:08:01;13.80;99.90
15241;DHT22;7723;52.170;9.978;2024-03-02T14:10:28;13.80;78.80
15241;DHT22;7723;52.170;9.978;2024-03-02T14:12:55;13.80;99.90
15241;DHT22;7723;52.170;9.978;2024-03-02T14:15:22;13.90;99.90
15241;DHT22;7723;52.170;9.978;2024-03-02T14:17:52;13.90;1.00
15241;DHT22;7723;52.170;9.978;2024-03-02T14:20:20;13.80;49.20
15241;DHT22;7723;52.170;9.978;2024-03-02T14:22:56;13.80;1.00
15241;DHT22;7723;52.170;9.978;2024-03-02T14:25:24;13.80;1.00
15241;DHT22;7723;52.170;9.978;2024-03-02T14:27:52;13.80;58.70
15241;DHT22;7723;52.170;9.978;2024-03-02T14:30:19;13.90;99.90
15241;DHT22;7723;52.170;9.978;2024-03-02T14:32:46;13.80;90.10
15241;DHT22;7723;52.170;9.978;2024-03-02T14:35:14;13.80;1.00
15241;DHT22;7723;52.170;9.978;2024-03-02T14:37:42;13.80;48.00
15241;DHT22;7723;52.170;9.978;2024-03-02T14:40:10;13.70;1.80
15241;DHT22;7723;52.170;9.978;2024-03-02T14:42:38;13.80;98.20
15241;DHT22;7723;52.170;9.978;2024-03-02T14:45:05;13.80;99.90
15241;DHT22;7723;52.170;9.978;2024-03-02T14:47:33;13.70;99.90
15241;DHT22;7723;52.170;9.978;2024-03-02T14:50:01;13.70;99.90
15241;DHT22;7723;52.170;9.978;2024-03-02T14:52:33;13.70;1.00
15241;DHT22;7723;52.170;9.978;2024-03-02T14:55:00;13.70;43.80
15241;DHT22;7723;52.170;9.978;2024-03-02T14:57:28;13.70;1.00
15241;DHT22;7723;52.170;9.978;2024-03-02T14:59:55;13.70;14.80
15241;DHT22;7723;52.170;9.978;2024-03-02T15:02:22;13.60;5.70
15241;DHT22;7723;52.170;9.978;2024-03-02T15:04:50;13.50;99.90
15241;DHT22;7723;52.170;9.978;2024-03-02T15:07:17;13.40;99.90
15241;DHT22;7723;52.170;9.978;2024-03-02T15:09:46;13.20;99.90
15241;DHT22;7723;52.170;9.978;2024-03-02T15:12:13;13.30;99.90
15241;DHT22;7723;52.170;9.978;2024-03-02T15:14:40;13.20;99.90
15241;DHT22;7723;52.170;9.978;2024-03-02T15:17:12;13.10;99.90
15241;DHT22;7723;52.170;9.978;2024-03-02T15:19:41;13.10;99.90
15241;DHT22;7723;52.170;9.978;2024-03-02T15:22:09;13.00;99.90
15241;DHT22;7723;52.170;9.978;2024-03-02T15:24:36;13.00;1.00
15241;DHT22;7723;52.170;9.978;2024-03-02T15:27:05;13.00;1.00
15241;DHT22;7723;52.170;9.978;2024-03-02T15:29:34;13.00;1.00
15241;DHT22;7723;52.170;9.978;2024-03-02T15:32:01;12.90;1.00
15241;DHT22;7723;52.170;9.978;2024-03-02T15:34:30;12.80;1.00
15241;DHT22;7723;52.170;9.978;2024-03-02T15:36:58;12.80;1.00
15241;DHT22;7723;52.170;9.978;2024-03-02T15:39:25;12.70;1.00
15241;DHT22;7723;52.170;9.978;2024-03-02T15:41:52;12.70;1.00
15241;DHT22;7723;52.170;9.978;2024-03-02T15:44:21;12.60;1.00
15241;DHT22;7723;52.170;9.978;2024-03-02T15:46:48;12.60;1.00
15241;DHT22;7723;52.170;9.978;2024-03-02T15:49:15;12.60;1.00
15241;DHT22;7723;52.170;9.978;2024-03-02T15:51:43;12.50;1.00
15241;DHT22;7723;52.170;9.978;2024-03-02T15:54:10;12.50;1.00
15241;DHT22;7723;52.170;9.978;2024-03-02T15:56:37;12.50;1.00
15241;DHT22;7723;52.170;9.978;2024-03-02T15:59:05;12.50;1.00
15241;DHT22;7723;52.170;9.978;2024-03-02T16:01:33;12.40;1.00
15241;DHT22;7723;52.170;9.978;2024-03-02T16:04:00;12.50;1.00
15241;DHT22;7723;52.170;9.978;2024-03-02T16:06:28;12.50;1.00